01:56
Airports
History
Links
Donate
Help keep this website running!
PayPal
Bitcoin
This page is community maintained. The information is intended for PC simulator navigation or reference.
Always use approved charts for navigation.
EDNM
Nittenau Bruck
Nittenau Bruck (EDNM)
Nittenau, Bayern, Germany (93149)
(U)
Lat/Lng:49° 13' 20.96" N / 12° 17' 47.4" E
49.222488 / 12.296501
Elevation:1161'ft / 354mMSL
ID / ICAO:EDNM
Runways:1
Longest:01-19
Asphalt 547m / 1,795ft
Nearby Weather01:53 GMT 2017-10-19
Nearby weather at ETIH, HOHENFELS AAF located 20.8 nautical miles from EDNM
Altimeter: 30.01
Visibility: 0.5 statute miles
Wind: 0 knots (from 000°)
Temp: 3°c / 37°f
Humidity: 100.0%

METAR: ETIH 190153Z AUTO 00000KT 0800 FG SCT000 03/03 A3001 RMK AO2 SLP168 RVRNO $

(Powered by phpweather)
Nearby VORs <50NM
Nearby NDBs
Runway 01 / 19
Dimensions:547.2 x 10.1m 1795' x 33'ft
Surface:Asphalt
Runway 01 [A]Runway 19 [B]
Heading:012°TH 192°TH
Lat:
Lng:
49° 13' 12.2"N
12° 17' 44.55"E
49° 13' 29.72"N
12° 17' 50.26"E
User Notes and Comments
49° 13' 20.96" N / 12° 17' 47.4" E
Distance To
Airport ID:
Nearby Airports
(U) Schmidgaden 16.9 NM
EDPQ NNW 328°
(C) HOHENFELS AAF 20.8 NM
ETIH ( WX ) W 269°
(C) Straubing 24.4 NM
EDMS SSE 155°
(U) Arnbruck 31.8 NM
EDNB ESE 102°
(U) Weiden 32.5 NM
EDQW NNW 345°
(C) GRAFENWOHR AAF 36.6 NM
ETIC ( WX ) NNW 334°
(U) VILSECK AAF 37.0 NM
ETOI NW 320°
VFR Chart
Flight Planning at SkyVector.com